sensor_id;sensor_type;location;lat;lon;timestamp;temperature;humidity
5394;DHT22;2720;52.396;10.064;2022-12-01T00:00:00;3.70;99.90
5394;DHT22;2720;52.396;10.064;2022-12-01T00:02:28;3.80;99.90
5394;DHT22;2720;52.396;10.064;2022-12-01T00:04:55;3.70;99.90
5394;DHT22;2720;52.396;10.064;2022-12-01T00:07:22;3.80;99.90
5394;DHT22;2720;52.396;10.064;2022-12-01T00:09:49;3.70;99.90
5394;DHT22;2720;52.396;10.064;2022-12-01T00:12:35;3.80;99.90
5394;DHT22;2720;52.396;10.064;2022-12-01T00:15:08;3.70;99.90
5394;DHT22;2720;52.396;10.064;2022-12-01T00:17:36;3.80;99.90
5394;DHT22;2720;52.396;10.064;2022-12-01T00:20:04;3.80;99.90
5394;DHT22;2720;52.396;10.064;2022-12-01T00:22:31;3.80;99.90
5394;DHT22;2720;52.396;10.064;2022-12-01T00:24:58;3.70;99.90
5394;DHT22;2720;52.396;10.064;2022-12-01T00:27:25;3.70;99.90
5394;DHT22;2720;52.396;10.064;2022-12-01T00:29:54;3.70;99.90
5394;DHT22;2720;52.396;10.064;2022-12-01T00:32:21;3.70;99.90
5394;DHT22;2720;52.396;10.064;2022-12-01T00:34:48;3.70;99.90
5394;DHT22;2720;52.396;10.064;2022-12-01T00:37:15;3.70;99.90
5394;DHT22;2720;52.396;10.064;2022-12-01T00:39:43;3.70;99.90
5394;DHT22;2720;52.396;10.064;2022-12-01T00:42:10;3.70;99.90
5394;DHT22;2720;52.396;10.064;2022-12-01T00:44:37;3.70;99.90
5394;DHT22;2720;52.396;10.064;2022-12-01T00:47:06;3.50;99.90
5394;DHT22;2720;52.396;10.064;2022-12-01T00:49:33;3.70;99.90
5394;DHT22;2720;52.396;10.064;2022-12-01T00:52:00;3.80;99.90
5394;DHT22;2720;52.396;10.064;2022-12-01T00:54:27;3.70;99.90
5394;DHT22;2720;52.396;10.064;2022-12-01T00:56:57;3.70;99.90
5394;DHT22;2720;52.396;10.064;2022-12-01T00:59:24;3.70;99.90
5394;DHT22;2720;52.396;10.064;2022-12-01T01:01:52;3.70;99.90
5394;DHT22;2720;52.396;10.064;2022-12-01T01:04:21;3.70;99.90
5394;DHT22;2720;52.396;10.064;2022-12-01T01:06:48;3.60;99.90
5394;DHT22;2720;52.396;10.064;2022-12-01T01:09:16;3.50;99.90
5394;DHT22;2720;52.396;10.064;2022-12-01T01:11:43;3.50;99.90
5394;DHT22;2720;52.396;10.064;2022-12-01T01:14:10;3.70;99.90
5394;DHT22;2720;52.396;10.064;2022-12-01T01:16:37;3.60;99.90
5394;DHT22;2720;52.396;10.064;2022-12-01T01:19:05;3.60;99.90
5394;DHT22;2720;52.396;10.064;2022-12-01T01:21:33;3.60;99.90
5394;DHT22;2720;52.396;10.064;2022-12-01T01:24:00;3.60;99.90
5394;DHT22;2720;52.396;10.064;2022-12-01T01:26:29;3.60;99.90
5394;DHT22;2720;52.396;10.064;2022-12-01T01:28:59;3.60;99.90
5394;DHT22;2720;52.396;10.064;2022-12-01T01:31:27;3.60;99.90
5394;DHT22;2720;52.396;10.064;2022-12-01T01:33:55;3.60;99.90
5394;DHT22;2720;52.396;10.064;2022-12-01T01:36:22;3.60;99.90
5394;DHT22;2720;52.396;10.064;2022-12-01T01:38:51;3.70;99.90
5394;DHT22;2720;52.396;10.064;2022-12-01T01:41:20;3.60;99.90
5394;DHT22;2720;52.396;10.064;2022-12-01T01:43:49;3.60;99.90
5394;DHT22;2720;52.396;10.064;2022-12-01T01:46:17;3.70;99.90
5394;DHT22;2720;52.396;10.064;2022-12-01T01:48:46;3.60;99.90
5394;DHT22;2720;52.396;10.064;2022-12-01T01:51:14;3.60;99.90
5394;DHT22;2720;52.396;10.064;2022-12-01T01:53:44;3.60;99.90
5394;DHT22;2720;52.396;10.064;2022-12-01T01:56:13;3.60;99.90
5394;DHT22;2720;52.396;10.064;2022-12-01T01:58:40;3.60;99.90
5394;DHT22;2720;52.396;10.064;2022-12-01T02:01:07;3.60;99.90
5394;DHT22;2720;52.396;10.064;2022-12-01T02:03:36;3.60;99.90
5394;DHT22;2720;52.396;10.064;2022-12-01T02:06:06;3.50;99.90
5394;DHT22;2720;52.396;10.064;2022-12-01T02:08:34;3.60;99.90
5394;DHT22;2720;52.396;10.064;2022-12-01T02:14:07;3.50;99.90
5394;DHT22;2720;52.396;10.064;2022-12-01T02:16:40;3.50;99.90
5394;DHT22;2720;52.396;10.064;2022-12-01T02:19:25;3.50;99.90
5394;DHT22;2720;52.396;10.064;2022-12-01T02:22:10;3.50;99.90
5394;DHT22;2720;52.396;10.064;2022-12-01T02:25:10;3.50;99.90
5394;DHT22;2720;52.396;10.064;2022-12-01T02:30:33;3.40;99.90
5394;DHT22;2720;52.396;10.064;2022-12-01T02:33:07;3.40;99.90
5394;DHT22;2720;52.396;10.064;2022-12-01T02:35:43;3.50;99.90
5394;DHT22;2720;52.396;10.064;2022-12-01T02:38:15;3.50;99.90
5394;DHT22;2720;52.396;10.064;2022-12-01T02:40:49;3.40;99.90
5394;DHT22;2720;52.396;10.064;2022-12-01T02:43:25;3.40;99.90
5394;DHT22;2720;52.396;10.064;2022-12-01T02:45:58;3.30;99.90
5394;DHT22;2720;52.396;10.064;2022-12-01T02:51:02;3.20;99.90
5394;DHT22;2720;52.396;10.064;2022-12-01T02:56:05;3.10;99.90
5394;DHT22;2720;52.396;10.064;2022-12-01T02:58:32;3.20;99.90
5394;DHT22;2720;52.396;10.064;2022-12-01T03:01:26;3.20;99.90
5394;DHT22;2720;52.396;10.064;2022-12-01T03:04:01;3.10;99.90
5394;DHT22;2720;52.396;10.064;2022-12-01T03:06:39;3.10;99.90
5394;DHT22;2720;52.396;10.064;2022-12-01T03:09:14;3.10;99.90
5394;DHT22;2720;52.396;10.064;2022-12-01T03:11:48;3.00;99.90
5394;DHT22;2720;52.396;10.064;2022-12-01T03:14:24;3.00;99.90
5394;DHT22;2720;52.396;10.064;2022-12-01T03:17:05;3.00;99.90
5394;DHT22;2720;52.396;10.064;2022-12-01T03:19:36;3.00;99.90
5394;DHT22;2720;52.396;10.064;2022-12-01T03:22:10;2.90;99.90
5394;DHT22;2720;52.396;10.064;2022-12-01T03:24:39;2.90;99.90
5394;DHT22;2720;52.396;10.064;2022-12-01T03:27:10;2.90;99.90
5394;DHT22;2720;52.396;10.064;2022-12-01T03:29:41;2.80;99.90
5394;DHT22;2720;52.396;10.064;2022-12-01T03:32:13;2.80;99.90
5394;DHT22;2720;52.396;10.064;2022-12-01T03:34:45;2.80;99.90
5394;DHT22;2720;52.396;10.064;2022-12-01T03:37:18;2.80;99.90
5394;DHT22;2720;52.396;10.064;2022-12-01T03:39:47;2.90;99.90
5394;DHT22;2720;52.396;10.064;2022-12-01T03:42:18;2.80;99.90
5394;DHT22;2720;52.396;10.064;2022-12-01T03:44:48;1.90;99.90
5394;DHT22;2720;52.396;10.064;2022-12-01T03:47:20;2.70;99.90
5394;DHT22;2720;52.396;10.064;2022-12-01T03:49:49;2.70;99.90
5394;DHT22;2720;52.396;10.064;2022-12-01T03:52:24;2.70;99.90
5394;DHT22;2720;52.396;10.064;2022-12-01T03:55:05;2.60;99.90
5394;DHT22;2720;52.396;10.064;2022-12-01T03:57:41;2.70;99.90
5394;DHT22;2720;52.396;10.064;2022-12-01T04:00:10;2.60;99.90
5394;DHT22;2720;52.396;10.064;2022-12-01T04:02:39;2.50;99.90
5394;DHT22;2720;52.396;10.064;2022-12-01T04:05:07;2.60;99.90
5394;DHT22;2720;52.396;10.064;2022-12-01T04:07:35;2.50;99.90
5394;DHT22;2720;52.396;10.064;2022-12-01T04:10:02;2.50;99.90
5394;DHT22;2720;52.396;10.064;2022-12-01T04:12:29;2.50;99.90
5394;DHT22;2720;52.396;10.064;2022-12-01T04:14:58;2.50;99.90
5394;DHT22;2720;52.396;10.064;2022-12-01T04:17:26;2.40;99.90
5394;DHT22;2720;52.396;10.064;2022-12-01T04:19:54;2.20;99.90
5394;DHT22;2720;52.396;10.064;2022-12-01T04:22:22;2.30;99.90
5394;DHT22;2720;52.396;10.064;2022-12-01T04:24:49;2.30;99.90
5394;DHT22;2720;52.396;10.064;2022-12-01T04:27:16;2.30;99.90
5394;DHT22;2720;52.396;10.064;2022-12-01T04:29:43;2.20;99.90
5394;DHT22;2720;52.396;10.064;2022-12-01T04:32:10;2.20;99.90
5394;DHT22;2720;52.396;10.064;2022-12-01T04:34:38;2.10;99.90
5394;DHT22;2720;52.396;10.064;2022-12-01T04:37:07;2.10;99.90
5394;DHT22;2720;52.396;10.064;2022-12-01T04:39:34;2.20;99.90
5394;DHT22;2720;52.396;10.064;2022-12-01T04:42:01;2.10;99.90
5394;DHT22;2720;52.396;10.064;2022-12-01T04:44:31;2.10;99.90
5394;DHT22;2720;52.396;10.064;2022-12-01T04:46:58;2.20;99.90
5394;DHT22;2720;52.396;10.064;2022-12-01T04:49:25;2.10;99.90
5394;DHT22;2720;52.396;10.064;2022-12-01T04:51:52;2.20;99.90
5394;DHT22;2720;52.396;10.064;2022-12-01T04:54:20;2.10;99.90
5394;DHT22;2720;52.396;10.064;2022-12-01T04:56:48;2.10;99.90
5394;DHT22;2720;52.396;10.064;2022-12-01T04:59:15;2.10;99.90
5394;DHT22;2720;52.396;10.064;2022-12-01T05:01:42;2.10;99.90
5394;DHT22;2720;52.396;10.064;2022-12-01T05:04:11;2.10;99.90
5394;DHT22;2720;52.396;10.064;2022-12-01T05:06:38;2.10;99.90
5394;DHT22;2720;52.396;10.064;2022-12-01T05:09:06;2.10;99.90
5394;DHT22;2720;52.396;10.064;2022-12-01T05:11:34;2.10;99.90
5394;DHT22;2720;52.396;10.064;2022-12-01T05:14:02;2.10;99.90
5394;DHT22;2720;52.396;10.064;2022-12-01T05:16:30;2.20;99.90
5394;DHT22;2720;52.396;10.064;2022-12-01T05:18:59;2.20;99.90
5394;DHT22;2720;52.396;10.064;2022-12-01T05:21:45;2.20;99.90
5394;DHT22;2720;52.396;10.064;2022-12-01T05:24:13;2.20;99.90
5394;DHT22;2720;52.396;10.064;2022-12-01T05:26:43;2.20;99.90
5394;DHT22;2720;52.396;10.064;2022-12-01T05:29:11;2.20;99.90
5394;DHT22;2720;52.396;10.064;2022-12-01T05:31:38;2.10;99.90
5394;DHT22;2720;52.396;10.064;2022-12-01T05:34:05;2.20;99.90
5394;DHT22;2720;52.396;10.064;2022-12-01T05:36:32;2.10;99.90
5394;DHT22;2720;52.396;10.064;2022-12-01T05:38:59;2.10;99.90
5394;DHT22;2720;52.396;10.064;2022-12-01T05:41:26;2.10;99.90
5394;DHT22;2720;52.396;10.064;2022-12-01T05:43:54;2.00;99.90
5394;DHT22;2720;52.396;10.064;2022-12-01T05:46:21;2.00;99.90
5394;DHT22;2720;52.396;10.064;2022-12-01T05:48:48;2.10;99.90
5394;DHT22;2720;52.396;10.064;2022-12-01T05:51:16;2.10;99.90
5394;DHT22;2720;52.396;10.064;2022-12-01T05:53:43;2.00;99.90
5394;DHT22;2720;52.396;10.064;2022-12-01T05:56:11;2.10;99.90
5394;DHT22;2720;52.396;10.064;2022-12-01T05:58:38;2.10;99.90
5394;DHT22;2720;52.396;10.064;2022-12-01T06:01:06;2.10;99.90
5394;DHT22;2720;52.396;10.064;2022-12-01T06:03:33;2.10;99.90
5394;DHT22;2720;52.396;10.064;2022-12-01T06:06:00;2.10;99.90
5394;DHT22;2720;52.396;10.064;2022-12-01T06:08:27;2.10;99.90
5394;DHT22;2720;52.396;10.064;2022-12-01T06:10:54;2.00;99.90
5394;DHT22;2720;52.396;10.064;2022-12-01T06:13:21;2.00;99.90
5394;DHT22;2720;52.396;10.064;2022-12-01T06:15:55;1.90;99.90
5394;DHT22;2720;52.396;10.064;2022-12-01T06:18:25;2.00;99.90
5394;DHT22;2720;52.396;10.064;2022-12-01T06:20:52;1.90;99.90
5394;DHT22;2720;52.396;10.064;2022-12-01T06:23:19;1.90;99.90
5394;DHT22;2720;52.396;10.064;2022-12-01T06:25:46;1.80;99.90
5394;DHT22;2720;52.396;10.064;2022-12-01T06:28:13;2.00;99.90
5394;DHT22;2720;52.396;10.064;2022-12-01T06:30:40;1.80;99.90
5394;DHT22;2720;52.396;10.064;2022-12-01T06:33:07;1.80;99.90
5394;DHT22;2720;52.396;10.064;2022-12-01T06:35:36;1.80;99.90
5394;DHT22;2720;52.396;10.064;2022-12-01T06:38:03;1.80;99.90
5394;DHT22;2720;52.396;10.064;2022-12-01T06:40:30;1.80;99.90
5394;DHT22;2720;52.396;10.064;2022-12-01T06:42:58;1.90;99.90
5394;DHT22;2720;52.396;10.064;2022-12-01T06:45:26;1.80;99.90
5394;DHT22;2720;52.396;10.064;2022-12-01T06:47:53;1.80;99.90
5394;DHT22;2720;52.396;10.064;2022-12-01T06:50:20;1.80;99.90
5394;DHT22;2720;52.396;10.064;2022-12-01T06:52:49;1.80;99.90
5394;DHT22;2720;52.396;10.064;2022-12-01T06:55:17;1.70;99.90
5394;DHT22;2720;52.396;10.064;2022-12-01T06:57:44;1.70;99.90
5394;DHT22;2720;52.396;10.064;2022-12-01T07:00:12;1.70;99.90
5394;DHT22;2720;52.396;10.064;2022-12-01T07:02:39;1.70;99.90
5394;DHT22;2720;52.396;10.064;2022-12-01T07:05:07;1.60;99.90
5394;DHT22;2720;52.396;10.064;2022-12-01T07:07:35;1.60;99.90
5394;DHT22;2720;52.396;10.064;2022-12-01T07:10:05;1.60;99.90
5394;DHT22;2720;52.396;10.064;2022-12-01T07:12:32;1.50;99.90
5394;DHT22;2720;52.396;10.064;2022-12-01T07:14:59;1.60;99.90
5394;DHT22;2720;52.396;10.064;2022-12-01T07:17:27;1.60;99.90
5394;DHT22;2720;52.396;10.064;2022-12-01T07:19:54;1.60;99.90
5394;DHT22;2720;52.396;10.064;2022-12-01T07:22:21;1.60;99.90
5394;DHT22;2720;52.396;10.064;2022-12-01T07:24:48;1.70;99.90
5394;DHT22;2720;52.396;10.064;2022-12-01T07:27:16;1.50;99.90
5394;DHT22;2720;52.396;10.064;2022-12-01T07:29:43;1.40;99.90
5394;DHT22;2720;52.396;10.064;2022-12-01T07:32:10;1.40;99.90
5394;DHT22;2720;52.396;10.064;2022-12-01T07:34:37;1.40;99.90
5394;DHT22;2720;52.396;10.064;2022-12-01T07:37:04;1.40;99.90
5394;DHT22;2720;52.396;10.064;2022-12-01T07:39:31;1.40;99.90
5394;DHT22;2720;52.396;10.064;2022-12-01T07:41:58;1.40;99.90
5394;DHT22;2720;52.396;10.064;2022-12-01T07:44:27;1.40;99.90
5394;DHT22;2720;52.396;10.064;2022-12-01T07:46:54;1.40;99.90
5394;DHT22;2720;52.396;10.064;2022-12-01T07:49:21;1.40;99.90
5394;DHT22;2720;52.396;10.064;2022-12-01T07:51:48;1.40;99.90
5394;DHT22;2720;52.396;10.064;2022-12-01T07:54:15;1.50;99.90
5394;DHT22;2720;52.396;10.064;2022-12-01T07:56:44;1.40;99.90
5394;DHT22;2720;52.396;10.064;2022-12-01T07:59:11;1.50;99.90
5394;DHT22;2720;52.396;10.064;2022-12-01T08:01:40;1.50;99.90
5394;DHT22;2720;52.396;10.064;2022-12-01T08:04:07;1.50;99.90
5394;DHT22;2720;52.396;10.064;2022-12-01T08:06:34;1.50;99.90
5394;DHT22;2720;52.396;10.064;2022-12-01T08:09:01;1.50;99.90
5394;DHT22;2720;52.396;10.064;2022-12-01T08:11:28;1.60;99.90
5394;DHT22;2720;52.396;10.064;2022-12-01T08:13:55;1.50;99.90
5394;DHT22;2720;52.396;10.064;2022-12-01T08:16:23;1.60;99.90
5394;DHT22;2720;52.396;10.064;2022-12-01T08:18:51;1.50;99.90
5394;DHT22;2720;52.396;10.064;2022-12-01T08:21:20;1.40;99.90
5394;DHT22;2720;52.396;10.064;2022-12-01T08:23:50;1.40;99.90
5394;DHT22;2720;52.396;10.064;2022-12-01T08:26:18;1.60;99.90
5394;DHT22;2720;52.396;10.064;2022-12-01T08:28:46;1.50;99.90
5394;DHT22;2720;52.396;10.064;2022-12-01T08:31:16;1.40;99.90
5394;DHT22;2720;52.396;10.064;2022-12-01T08:33:43;1.50;99.90
5394;DHT22;2720;52.396;10.064;2022-12-01T08:36:12;1.50;99.90
5394;DHT22;2720;52.396;10.064;2022-12-01T08:38:42;1.50;99.90
5394;DHT22;2720;52.396;10.064;2022-12-01T08:41:10;1.50;99.90
5394;DHT22;2720;52.396;10.064;2022-12-01T08:43:37;1.60;99.90
5394;DHT22;2720;52.396;10.064;2022-12-01T08:46:07;1.60;99.90
5394;DHT22;2720;52.396;10.064;2022-12-01T08:48:34;1.60;99.90
5394;DHT22;2720;52.396;10.064;2022-12-01T08:51:03;1.60;99.90
5394;DHT22;2720;52.396;10.064;2022-12-01T08:53:33;1.70;99.90
5394;DHT22;2720;52.396;10.064;2022-12-01T08:56:01;1.60;99.90
5394;DHT22;2720;52.396;10.064;2022-12-01T08:58:28;1.60;99.90
5394;DHT22;2720;52.396;10.064;2022-12-01T09:01:01;1.60;99.90
5394;DHT22;2720;52.396;10.064;2022-12-01T09:03:29;1.50;99.90
5394;DHT22;2720;52.396;10.064;2022-12-01T09:06:02;1.60;99.90
5394;DHT22;2720;52.396;10.064;2022-12-01T09:08:29;1.50;99.90
5394;DHT22;2720;52.396;10.064;2022-12-01T09:11:03;1.60;99.90
5394;DHT22;2720;52.396;10.064;2022-12-01T09:13:31;1.70;99.90
5394;DHT22;2720;52.396;10.064;2022-12-01T09:16:00;1.70;99.90
5394;DHT22;2720;52.396;10.064;2022-12-01T09:18:28;1.70;99.90
5394;DHT22;2720;52.396;10.064;2022-12-01T09:20:55;1.70;99.90
5394;DHT22;2720;52.396;10.064;2022-12-01T09:23:22;1.80;99.90
5394;DHT22;2720;52.396;10.064;2022-12-01T09:25:50;1.80;99.90
5394;DHT22;2720;52.396;10.064;2022-12-01T09:28:19;1.80;99.90
5394;DHT22;2720;52.396;10.064;2022-12-01T09:30:46;1.80;99.90
5394;DHT22;2720;52.396;10.064;2022-12-01T09:33:14;1.80;99.90
5394;DHT22;2720;52.396;10.064;2022-12-01T09:35:41;1.80;99.90
5394;DHT22;2720;52.396;10.064;2022-12-01T09:38:08;1.80;99.90
5394;DHT22;2720;52.396;10.064;2022-12-01T09:40:37;1.80;99.90
5394;DHT22;2720;52.396;10.064;2022-12-01T09:43:12;1.80;99.90
5394;DHT22;2720;52.396;10.064;2022-12-01T09:45:45;1.80;99.90
5394;DHT22;2720;52.396;10.064;2022-12-01T09:48:22;1.80;99.90
5394;DHT22;2720;52.396;10.064;2022-12-01T09:50:51;1.90;99.90
5394;DHT22;2720;52.396;10.064;2022-12-01T09:53:21;1.90;99.90
5394;DHT22;2720;52.396;10.064;2022-12-01T09:55:50;1.90;99.90
5394;DHT22;2720;52.396;10.064;2022-12-01T09:58:18;1.90;99.90
5394;DHT22;2720;52.396;10.064;2022-12-01T10:00:49;2.00;99.90
5394;DHT22;2720;52.396;10.064;2022-12-01T10:03:23;1.90;99.90
5394;DHT22;2720;52.396;10.064;2022-12-01T10:05:55;2.10;99.90
5394;DHT22;2720;52.396;10.064;2022-12-01T10:08:26;2.00;99.90
5394;DHT22;2720;52.396;10.064;2022-12-01T10:10:59;2.00;99.90
5394;DHT22;2720;52.396;10.064;2022-12-01T10:13:28;1.90;99.90
5394;DHT22;2720;52.396;10.064;2022-12-01T10:16:08;1.90;99.90
5394;DHT22;2720;52.396;10.064;2022-12-01T10:18:45;2.00;99.90
5394;DHT22;2720;52.396;10.064;2022-12-01T10:21:23;2.10;99.90
5394;DHT22;2720;52.396;10.064;2022-12-01T10:24:10;2.10;99.90
5394;DHT22;2720;52.396;10.064;2022-12-01T10:26:48;2.00;99.90
5394;DHT22;2720;52.396;10.064;2022-12-01T10:29:26;2.10;99.90
5394;DHT22;2720;52.396;10.064;2022-12-01T10:31:56;2.10;99.90
5394;DHT22;2720;52.396;10.064;2022-12-01T10:34:25;2.00;99.90
5394;DHT22;2720;52.396;10.064;2022-12-01T10:36:53;2.00;99.90
5394;DHT22;2720;52.396;10.064;2022-12-01T10:39:26;2.10;99.90
5394;DHT22;2720;52.396;10.064;2022-12-01T10:41:59;2.10;99.90
5394;DHT22;2720;52.396;10.064;2022-12-01T10:44:27;2.00;99.90
5394;DHT22;2720;52.396;10.064;2022-12-01T10:46:56;2.10;99.90
5394;DHT22;2720;52.396;10.064;2022-12-01T10:49:35;2.00;99.90
5394;DHT22;2720;52.396;10.064;2022-12-01T10:52:03;2.10;99.90
5394;DHT22;2720;52.396;10.064;2022-12-01T10:54:35;2.10;99.90
5394;DHT22;2720;52.396;10.064;2022-12-01T10:57:02;2.10;99.90
5394;DHT22;2720;52.396;10.064;2022-12-01T10:59:31;2.30;99.90
5394;DHT22;2720;52.396;10.064;2022-12-01T11:02:03;2.40;99.90
5394;DHT22;2720;52.396;10.064;2022-12-01T11:04:37;2.40;99.90
5394;DHT22;2720;52.396;10.064;2022-12-01T11:07:15;2.30;99.90
5394;DHT22;2720;52.396;10.064;2022-12-01T11:09:45;2.20;99.90
5394;DHT22;2720;52.396;10.064;2022-12-01T11:12:15;2.30;99.90
5394;DHT22;2720;52.396;10.064;2022-12-01T11:14:47;2.30;99.90
5394;DHT22;2720;52.396;10.064;2022-12-01T11:17:25;2.40;99.90
5394;DHT22;2720;52.396;10.064;2022-12-01T11:19:52;3.00;99.90
5394;DHT22;2720;52.396;10.064;2022-12-01T11:22:22;2.40;99.90
5394;DHT22;2720;52.396;10.064;2022-12-01T11:25:00;2.40;99.90
5394;DHT22;2720;52.396;10.064;2022-12-01T11:27:31;3.50;99.90
5394;DHT22;2720;52.396;10.064;2022-12-01T11:30:02;2.30;99.90
5394;DHT22;2720;52.396;10.064;2022-12-01T11:32:33;2.30;99.90
5394;DHT22;2720;52.396;10.064;2022-12-01T11:35:03;2.30;99.90
5394;DHT22;2720;52.396;10.064;2022-12-01T11:37:35;2.20;99.90
5394;DHT22;2720;52.396;10.064;2022-12-01T11:40:15;2.30;99.90
5394;DHT22;2720;52.396;10.064;2022-12-01T11:42:47;2.30;99.90
5394;DHT22;2720;52.396;10.064;2022-12-01T11:45:24;2.30;99.90
5394;DHT22;2720;52.396;10.064;2022-12-01T11:48:02;2.20;99.90
5394;DHT22;2720;52.396;10.064;2022-12-01T11:50:31;2.20;99.90
5394;DHT22;2720;52.396;10.064;2022-12-01T11:52:58;2.30;99.90
5394;DHT22;2720;52.396;10.064;2022-12-01T11:55:26;2.30;99.90
5394;DHT22;2720;52.396;10.064;2022-12-01T11:57:56;2.40;99.90
5394;DHT22;2720;52.396;10.064;2022-12-01T12:00:26;2.40;99.90
5394;DHT22;2720;52.396;10.064;2022-12-01T12:03:08;2.40;99.90
5394;DHT22;2720;52.396;10.064;2022-12-01T12:05:45;2.50;99.90
5394;DHT22;2720;52.396;10.064;2022-12-01T12:11:11;2.60;99.90
5394;DHT22;2720;52.396;10.064;2022-12-01T12:14:08;2.60;99.90
5394;DHT22;2720;52.396;10.064;2022-12-01T12:17:01;2.50;99.90
5394;DHT22;2720;52.396;10.064;2022-12-01T12:19:49;2.40;99.90
5394;DHT22;2720;52.396;10.064;2022-12-01T12:22:24;2.40;99.90
5394;DHT22;2720;52.396;10.064;2022-12-01T12:25:09;2.50;99.90
5394;DHT22;2720;52.396;10.064;2022-12-01T12:27:47;2.50;99.90
5394;DHT22;2720;52.396;10.064;2022-12-01T12:30:21;2.50;99.90
5394;DHT22;2720;52.396;10.064;2022-12-01T12:33:23;2.40;99.90
5394;DHT22;2720;52.396;10.064;2022-12-01T12:36:03;2.50;99.90
5394;DHT22;2720;52.396;10.064;2022-12-01T12:38:46;2.50;99.90
5394;DHT22;2720;52.396;10.064;2022-12-01T12:41:25;2.40;99.90
5394;DHT22;2720;52.396;10.064;2022-12-01T12:44:02;2.50;99.90
5394;DHT22;2720;52.396;10.064;2022-12-01T12:46:37;2.50;99.90
5394;DHT22;2720;52.396;10.064;2022-12-01T12:49:23;2.50;99.90
5394;DHT22;2720;52.396;10.064;2022-12-01T12:51:58;2.70;99.90
5394;DHT22;2720;52.396;10.064;2022-12-01T12:54:31;2.60;99.90
5394;DHT22;2720;52.396;10.064;2022-12-01T12:57:03;2.60;99.90
5394;DHT22;2720;52.396;10.064;2022-12-01T12:59:38;2.60;99.90
5394;DHT22;2720;52.396;10.064;2022-12-01T13:02:12;2.60;99.90
5394;DHT22;2720;52.396;10.064;2022-12-01T13:04:47;2.60;99.90
5394;DHT22;2720;52.396;10.064;2022-12-01T13:07:35;2.50;99.90
5394;DHT22;2720;52.396;10.064;2022-12-01T13:10:10;2.70;99.90
5394;DHT22;2720;52.396;10.064;2022-12-01T13:12:44;2.50;99.90
5394;DHT22;2720;52.396;10.064;2022-12-01T13:15:18;2.50;99.90
5394;DHT22;2720;52.396;10.064;2022-12-01T13:17:48;2.60;99.90
5394;DHT22;2720;52.396;10.064;2022-12-01T13:20:20;2.50;99.90
5394;DHT22;2720;52.396;10.064;2022-12-01T13:22:51;2.60;99.90
5394;DHT22;2720;52.396;10.064;2022-12-01T13:25:23;2.50;99.90
5394;DHT22;2720;52.396;10.064;2022-12-01T13:27:52;2.50;99.90
5394;DHT22;2720;52.396;10.064;2022-12-01T13:30:21;2.50;99.90
5394;DHT22;2720;52.396;10.064;2022-12-01T13:32:57;2.50;99.90
5394;DHT22;2720;52.396;10.064;2022-12-01T13:35:26;2.50;99.90
5394;DHT22;2720;52.396;10.064;2022-12-01T13:38:17;2.50;99.90
5394;DHT22;2720;52.396;10.064;2022-12-01T13:40:45;2.50;99.90
5394;DHT22;2720;52.396;10.064;2022-12-01T13:43:17;2.50;99.90
5394;DHT22;2720;52.396;10.064;2022-12-01T13:45:45;2.50;99.90
5394;DHT22;2720;52.396;10.064;2022-12-01T13:48:27;2.50;99.90
5394;DHT22;2720;52.396;10.064;2022-12-01T13:50:57;2.50;99.90
5394;DHT22;2720;52.396;10.064;2022-12-01T13:53:33;2.50;99.90
5394;DHT22;2720;52.396;10.064;2022-12-01T13:59:35;2.50;99.90
5394;DHT22;2720;52.396;10.064;2022-12-01T14:02:11;2.40;99.90
5394;DHT22;2720;52.396;10.064;2022-12-01T14:04:39;2.40;99.90
5394;DHT22;2720;52.396;10.064;2022-12-01T14:07:26;2.40;99.90
5394;DHT22;2720;52.396;10.064;2022-12-01T14:12:48;2.40;99.90
5394;DHT22;2720;52.396;10.064;2022-12-01T14:15:26;2.40;99.90
5394;DHT22;2720;52.396;10.064;2022-12-01T14:18:00;2.50;99.90
5394;DHT22;2720;52.396;10.064;2022-12-01T14:20:31;2.40;99.90
5394;DHT22;2720;52.396;10.064;2022-12-01T14:23:19;2.40;99.90
5394;DHT22;2720;52.396;10.064;2022-12-01T14:26:12;2.40;99.90
5394;DHT22;2720;52.396;10.064;2022-12-01T14:29:08;2.40;99.90
5394;DHT22;2720;52.396;10.064;2022-12-01T14:32:02;2.30;99.90
5394;DHT22;2720;52.396;10.064;2022-12-01T14:34:30;2.20;99.90
5394;DHT22;2720;52.396;10.064;2022-12-01T14:37:04;2.30;99.90
5394;DHT22;2720;52.396;10.064;2022-12-01T14:39:34;2.70;99.90
5394;DHT22;2720;52.396;10.064;2022-12-01T14:42:13;2.20;99.90
5394;DHT22;2720;52.396;10.064;2022-12-01T14:45:03;1.60;99.90
5394;DHT22;2720;52.396;10.064;2022-12-01T14:47:38;2.40;99.90
5394;DHT22;2720;52.396;10.064;2022-12-01T14:50:12;2.20;99.90
5394;DHT22;2720;52.396;10.064;2022-12-01T14:52:42;2.30;99.90
5394;DHT22;2720;52.396;10.064;2022-12-01T14:55:14;2.30;99.90
5394;DHT22;2720;52.396;10.064;2022-12-01T14:57:47;2.20;99.90
5394;DHT22;2720;52.396;10.064;2022-12-01T15:00:16;2.20;99.90
5394;DHT22;2720;52.396;10.064;2022-12-01T15:02:47;2.20;99.90
5394;DHT22;2720;52.396;10.064;2022-12-01T15:05:18;2.20;99.90
5394;DHT22;2720;52.396;10.064;2022-12-01T15:07:48;2.20;99.90
5394;DHT22;2720;52.396;10.064;2022-12-01T15:10:17;2.20;99.90
5394;DHT22;2720;52.396;10.064;2022-12-01T15:12:46;2.20;99.90
5394;DHT22;2720;52.396;10.064;2022-12-01T15:15:15;2.20;99.90
5394;DHT22;2720;52.396;10.064;2022-12-01T15:17:42;2.20;99.90
5394;DHT22;2720;52.396;10.064;2022-12-01T15:20:29;2.10;99.90
5394;DHT22;2720;52.396;10.064;2022-12-01T15:22:57;2.20;99.90
5394;DHT22;2720;52.396;10.064;2022-12-01T15:25:27;2.10;99.90
5394;DHT22;2720;52.396;10.064;2022-12-01T15:28:03;2.20;99.90
5394;DHT22;2720;52.396;10.064;2022-12-01T15:30:36;2.10;99.90
5394;DHT22;2720;52.396;10.064;2022-12-01T15:33:04;2.10;99.90
5394;DHT22;2720;52.396;10.064;2022-12-01T15:35:32;2.10;99.90
5394;DHT22;2720;52.396;10.064;2022-12-01T15:38:00;2.10;99.90
5394;DHT22;2720;52.396;10.064;2022-12-01T15:40:28;2.10;99.90
5394;DHT22;2720;52.396;10.064;2022-12-01T15:43:04;2.10;99.90
5394;DHT22;2720;52.396;10.064;2022-12-01T15:45:44;2.10;99.90
5394;DHT22;2720;52.396;10.064;2022-12-01T15:48:16;2.10;99.90
5394;DHT22;2720;52.396;10.064;2022-12-01T15:50:47;1.80;99.90
5394;DHT22;2720;52.396;10.064;2022-12-01T15:53:21;2.10;99.90
5394;DHT22;2720;52.396;10.064;2022-12-01T15:55:50;2.20;99.90
5394;DHT22;2720;52.396;10.064;2022-12-01T15:58:22;2.20;99.90
5394;DHT22;2720;52.396;10.064;2022-12-01T16:00:56;2.10;99.90
5394;DHT22;2720;52.396;10.064;2022-12-01T16:03:24;2.10;99.90
5394;DHT22;2720;52.396;10.064;2022-12-01T16:08:20;2.10;99.90
5394;DHT22;2720;52.396;10.064;2022-12-01T16:11:09;2.10;99.90
5394;DHT22;2720;52.396;10.064;2022-12-01T16:16:38;2.00;99.90
5394;DHT22;2720;52.396;10.064;2022-12-01T16:19:22;2.10;99.90
5394;DHT22;2720;52.396;10.064;2022-12-01T16:21:53;2.10;99.90
5394;DHT22;2720;52.396;10.064;2022-12-01T16:24:25;2.00;99.90
5394;DHT22;2720;52.396;10.064;2022-12-01T16:26:54;2.10;99.90
5394;DHT22;2720;52.396;10.064;2022-12-01T16:29:25;2.00;99.90
5394;DHT22;2720;52.396;10.064;2022-12-01T16:31:52;2.10;99.90
5394;DHT22;2720;52.396;10.064;2022-12-01T16:34:22;2.10;99.90
5394;DHT22;2720;52.396;10.064;2022-12-01T16:36:49;2.10;99.90
5394;DHT22;2720;52.396;10.064;2022-12-01T16:39:16;2.10;99.90
5394;DHT22;2720;52.396;10.064;2022-12-01T16:41:43;2.10;99.90
5394;DHT22;2720;52.396;10.064;2022-12-01T16:44:12;2.20;99.90
5394;DHT22;2720;52.396;10.064;2022-12-01T16:46:40;2.10;99.90
5394;DHT22;2720;52.396;10.064;2022-12-01T16:49:07;2.10;99.90
5394;DHT22;2720;52.396;10.064;2022-12-01T16:51:35;2.20;99.90